Time;durP1;ratioP1;P1;durP2;ratioP2;P2;SDS_P1;SDS_P2;PMS_P1;PMS_P2;Temp;Humidity;BMP_temperature;BMP_pressure;BME280_temperature;BME280_humidity;BME280_pressure;Samples;Min_cycle;Max_cycle;Signal;HPM_P1;HPM_P2
2022/09/13 00:00:31;;;;;;;4.23;2.97;;;16.30;99.90;;;;;;5041727;28;20649;-83
2022/09/13 00:02:57;;;;;;;4.87;3.00;;;16.30;99.90;;;;;;5042079;28;20192;-82
2022/09/13 00:05:22;;;;;;;3.37;3.03;;;16.20;99.90;;;;;;5042022;28;20178;-82
2022/09/13 00:07:48;;;;;;;4.07;2.97;;;16.30;99.90;;;;;;5060348;28;20175;-82
2022/09/13 00:10:14;;;;;;;4.50;3.30;;;16.30;99.90;;;;;;5042101;28;20247;-83
2022/09/13 00:12:40;;;;;;;4.27;3.40;;;16.30;99.90;;;;;;5060039;28;20191;-82
2022/09/13 00:15:06;;;;;;;4.77;3.40;;;16.30;99.90;;;;;;5060178;28;20237;-82
2022/09/13 00:17:31;;;;;;;6.40;3.10;;;16.20;99.90;;;;;;5042921;28;20202;-82
2022/09/13 00:19:57;;;;;;;4.20;3.00;;;16.30;99.90;;;;;;5064055;28;20163;-83
2022/09/13 00:22:22;;;;;;;3.50;3.20;;;16.20;99.90;;;;;;5045398;28;20187;-82
2022/09/13 00:24:48;;;;;;;5.80;3.03;;;16.30;99.90;;;;;;5046040;28;20178;-82
2022/09/13 00:27:13;;;;;;;3.93;2.63;;;16.30;99.90;;;;;;5046190;28;20183;-83
2022/09/13 00:29:39;;;;;;;3.20;2.83;;;16.40;99.90;;;;;;5063604;28;20201;-82
2022/09/13 00:32:05;;;;;;;4.33;3.33;;;16.40;99.90;;;;;;5064522;28;20183;-83
2022/09/13 00:34:30;;;;;;;7.90;4.10;;;16.40;99.90;;;;;;5046805;28;20249;-82
2022/09/13 00:36:56;;;;;;;6.47;3.13;;;16.50;99.90;;;;;;5064632;28;20201;-83
2022/09/13 00:39:21;;;;;;;5.93;3.03;;;16.40;99.90;;;;;;5064648;28;20575;-83
2022/09/13 00:41:47;;;;;;;3.73;2.93;;;16.50;99.90;;;;;;5045966;28;20243;-82
2022/09/13 00:44:44;;;;;;;3.70;2.97;;;16.40;99.90;;;;;;5064726;28;20215;-81
2022/09/13 00:47:14;;;;;;;3.80;2.87;;;16.50;99.90;;;;;;5046459;28;20270;-82
2022/09/13 00:49:40;;;;;;;7.73;3.20;;;16.50;99.90;;;;;;5064607;28;20262;-82
2022/09/13 00:52:12;;;;;;;6.63;3.03;;;16.50;99.90;;;;;;5064101;28;20183;-83
2022/09/13 00:54:56;;;;;;;8.17;3.20;;;16.40;99.90;;;;;;5047726;28;20199;-83
2022/09/13 00:57:23;;;;;;;4.73;2.87;;;16.50;99.90;;;;;;5064949;28;20645;-83
2022/09/13 01:00:06;;;;;;;3.47;2.90;;;16.50;99.90;;;;;;5045821;28;20610;-82
2022/09/13 01:02:32;;;;;;;4.97;3.07;;;16.40;99.90;;;;;;5046832;28;20168;-82
2022/09/13 01:04:57;;;;;;;3.93;3.20;;;16.40;99.90;;;;;;5063474;28;20259;-82
2022/09/13 01:07:23;;;;;;;4.37;2.70;;;16.30;99.90;;;;;;5045247;28;20206;-82
2022/09/13 01:09:50;;;;;;;3.17;2.67;;;16.30;99.90;;;;;;5064003;28;20176;-82
2022/09/13 01:12:40;;;;;;;5.27;2.80;;;16.20;99.90;;;;;;5063574;28;20214;-82
2022/09/13 01:15:06;;;;;;;3.57;2.73;;;16.30;99.90;;;;;;5046155;28;20175;-82
2022/09/13 01:17:33;;;;;;;5.57;3.10;;;16.20;99.90;;;;;;5044912;28;20563;-83
2022/09/13 01:20:00;;;;;;;5.60;2.57;;;16.20;99.90;;;;;;5063153;28;20187;-83
2022/09/13 01:22:52;;;;;;;4.93;2.73;;;16.30;99.90;;;;;;5045522;28;20540;-82
2022/09/13 01:25:45;;;;;;;4.60;3.13;;;16.20;99.90;;;;;;5062840;28;20170;-83
2022/09/13 01:28:27;;;;;;;3.20;2.90;;;16.20;99.90;;;;;;5062256;28;20171;-83
2022/09/13 01:31:28;;;;;;;4.73;2.90;;;16.10;99.90;;;;;;5062421;28;20646;-81
2022/09/13 01:34:18;;;;;;;6.03;3.30;;;16.10;99.90;;;;;;5044766;28;20346;-83
2022/09/13 01:37:22;;;;;;;3.93;3.07;;;16.10;99.90;;;;;;5043463;28;20681;-82
2022/09/13 01:40:09;;;;;;;3.07;2.53;;;16.10;99.90;;;;;;5062776;28;20152;-83
2022/09/13 01:42:50;;;;;;;5.20;3.30;;;16.10;99.90;;;;;;5062653;28;20246;-82
2022/09/13 01:45:24;;;;;;;6.20;2.90;;;16.00;99.90;;;;;;5061956;28;20200;-82
2022/09/13 01:48:19;;;;;;;4.23;3.30;;;16.10;99.90;;;;;;5044667;28;20617;-82
2022/09/13 01:50:59;;;;;;;5.23;3.10;;;16.10;99.90;;;;;;5062046;28;20174;-83
2022/09/13 01:53:31;;;;;;;6.03;3.27;;;16.10;99.90;;;;;;5044082;28;20203;-83
2022/09/13 01:56:14;;;;;;;7.17;3.77;;;16.10;99.90;;;;;;5063637;28;20162;-82
2022/09/13 01:58:54;;;;;;;3.97;3.00;;;16.20;99.90;;;;;;5061685;28;20170;-81
2022/09/13 02:01:45;;;;;;;7.67;3.60;;;16.20;99.90;;;;;;5062843;28;20152;-83
2022/09/13 02:04:16;;;;;;;3.93;3.10;;;16.20;99.90;;;;;;5044950;28;20196;-82
2022/09/13 02:07:03;;;;;;;3.10;2.80;;;16.20;99.90;;;;;;5046077;28;20229;-82
2022/09/13 02:09:33;;;;;;;3.20;2.80;;;16.30;99.90;;;;;;5064095;28;20167;-83
2022/09/13 02:12:12;;;;;;;4.33;2.80;;;16.30;99.90;;;;;;5046284;28;20179;-82
2022/09/13 02:14:40;;;;;;;5.67;3.43;;;16.30;99.90;;;;;;5065240;28;20202;-83
2022/09/13 02:17:15;;;;;;;4.50;3.10;;;16.30;99.90;;;;;;5063704;28;20203;-82
2022/09/13 02:19:44;;;;;;;3.70;3.10;;;16.30;99.90;;;;;;5067365;28;20156;-82
2022/09/13 02:22:14;;;;;;;3.70;3.13;;;16.30;99.90;;;;;;5063437;28;20175;-82
2022/09/13 02:24:43;;;;;;;4.30;2.90;;;16.40;99.90;;;;;;5064763;28;20249;-82
2022/09/13 02:27:13;;;;;;;3.33;2.90;;;16.30;99.90;;;;;;5063154;28;20168;-83
2022/09/13 02:29:44;;;;;;;4.80;2.83;;;16.30;99.90;;;;;;5066028;28;20179;-82
2022/09/13 02:32:16;;;;;;;5.83;3.30;;;16.30;99.90;;;;;;5046373;28;20183;-82
2022/09/13 02:34:47;;;;;;;8.10;3.30;;;16.30;99.90;;;;;;5064268;28;20229;-82
2022/09/13 02:37:13;;;;;;;5.23;2.80;;;16.30;99.90;;;;;;5064257;28;20194;-83
2022/09/13 02:39:46;;;;;;;5.07;3.00;;;16.30;99.90;;;;;;5048196;28;20239;-82
2022/09/13 02:42:23;;;;;;;7.77;2.63;;;16.30;99.90;;;;;;5033635;28;20180;-82
2022/09/13 02:44:52;;;;;;;6.30;2.70;;;16.30;99.90;;;;;;5027096;28;20192;-82
2022/09/13 02:47:32;;;;;;;5.03;2.70;;;16.30;99.90;;;;;;5027830;28;20180;-83
2022/09/13 02:50:29;;;;;;;3.90;2.80;;;16.30;99.90;;;;;;5046565;28;20161;-83
2022/09/13 02:53:29;;;;;;;5.30;3.17;;;16.30;99.90;;;;;;5063957;28;20265;-82
2022/09/13 02:56:09;;;;;;;4.53;2.90;;;16.30;99.90;;;;;;5048973;28;20240;-82
2022/09/13 02:58:49;;;;;;;3.73;2.53;;;16.30;99.90;;;;;;5048034;28;20244;-83
2022/09/13 03:01:15;;;;;;;4.67;3.30;;;16.30;99.90;;;;;;5047741;28;20200;-83
2022/09/13 03:03:41;;;;;;;4.23;3.10;;;16.30;99.90;;;;;;5047341;28;20195;-83
2022/09/13 03:06:07;;;;;;;3.87;2.93;;;16.30;99.90;;;;;;5047904;28;20176;-82
2022/09/13 03:08:34;;;;;;;3.70;2.93;;;16.30;99.90;;;;;;5048536;28;20642;-83
2022/09/13 03:11:31;;;;;;;7.53;3.20;;;16.40;99.90;;;;;;5064058;28;20242;-83
2022/09/13 03:14:16;;;;;;;4.70;3.03;;;16.40;99.90;;;;;;5049608;28;20198;-82
2022/09/13 03:17:26;;;;;;;3.70;3.20;;;16.40;99.90;;;;;;5067137;28;20191;-82
2022/09/13 03:20:18;;;;;;;3.17;2.87;;;16.40;99.90;;;;;;5027307;28;20210;-82
2022/09/13 03:23:28;;;;;;;7.13;3.17;;;16.40;99.90;;;;;;5042006;28;20226;-82
2022/09/13 03:26:08;;;;;;;4.60;2.87;;;16.40;99.90;;;;;;5049638;28;20187;-82
2022/09/13 03:29:06;;;;;;;7.93;3.13;;;16.40;99.90;;;;;;5060911;28;20197;-82
2022/09/13 03:31:47;;;;;;;4.13;3.27;;;16.40;99.90;;;;;;5042626;28;20187;-83
2022/09/13 03:34:16;;;;;;;3.53;3.20;;;16.40;99.90;;;;;;5045110;28;20206;-83
2022/09/13 03:36:46;;;;;;;5.87;3.30;;;16.40;99.90;;;;;;5045067;28;20276;-82
2022/09/13 03:39:17;;;;;;;4.73;2.70;;;16.40;99.90;;;;;;5062475;28;20163;-83
2022/09/13 03:41:48;;;;;;;4.33;3.13;;;16.40;99.90;;;;;;5029560;28;20179;-82
2022/09/13 03:44:17;;;;;;;5.00;2.90;;;16.40;99.90;;;;;;5047655;28;20264;-83
2022/09/13 03:46:45;;;;;;;5.70;3.20;;;16.40;99.90;;;;;;5048453;28;20195;-83
2022/09/13 03:49:14;;;;;;;5.50;3.50;;;16.40;99.90;;;;;;5030999;28;20172;-83
2022/09/13 03:51:41;;;;;;;3.97;3.00;;;16.40;99.90;;;;;;5046105;28;20187;-83
2022/09/13 03:54:13;;;;;;;4.77;3.27;;;16.40;99.90;;;;;;5068137;28;20234;-82
2022/09/13 03:56:38;;;;;;;4.53;3.07;;;16.30;99.90;;;;;;5051257;28;20267;-82
2022/09/13 03:59:04;;;;;;;5.63;3.83;;;16.30;99.90;;;;;;5049537;28;20175;-83
2022/09/13 04:01:29;;;;;;;3.47;3.17;;;16.40;99.90;;;;;;5065920;28;20211;-82
2022/09/13 04:03:55;;;;;;;4.33;3.67;;;16.30;99.90;;;;;;5063481;28;20203;-81
2022/09/13 04:06:20;;;;;;;5.20;3.17;;;16.30;99.90;;;;;;5041581;28;20191;-82
2022/09/13 04:08:46;;;;;;;5.73;3.50;;;16.30;99.90;;;;;;5041507;28;20175;-82
2022/09/13 04:11:12;;;;;;;4.37;3.03;;;16.30;99.90;;;;;;5059044;28;20176;-82
2022/09/13 04:13:37;;;;;;;3.60;3.07;;;16.30;99.90;;;;;;5041302;28;20639;-82
2022/09/13 04:16:05;;;;;;;3.90;3.50;;;16.30;99.90;;;;;;5059473;28;20186;-82
2022/09/13 04:18:30;;;;;;;8.47;3.20;;;16.30;99.90;;;;;;5060198;28;20167;-82
2022/09/13 04:20:58;;;;;;;4.07;3.20;;;16.30;99.90;;;;;;5032000;28;20183;-82
2022/09/13 04:23:25;;;;;;;4.10;3.23;;;16.30;99.90;;;;;;5039360;28;20196;-82
2022/09/13 04:25:51;;;;;;;4.63;3.13;;;16.30;99.90;;;;;;5039712;28;20176;-82
2022/09/13 04:28:18;;;;;;;6.13;3.50;;;16.30;99.90;;;;;;5023908;28;20203;-82
2022/09/13 04:30:47;;;;;;;3.50;3.00;;;16.30;99.90;;;;;;5021857;28;20204;-81
2022/09/13 04:33:13;;;;;;;5.37;3.57;;;16.30;99.90;;;;;;5022088;28;20200;-82
2022/09/13 04:35:39;;;;;;;5.63;3.30;;;16.20;99.90;;;;;;5022503;28;20176;-81
2022/09/13 04:38:06;;;;;;;4.93;3.70;;;16.20;99.90;;;;;;5023139;28;20262;-83
2022/09/13 04:40:31;;;;;;;6.67;3.57;;;16.20;99.90;;;;;;5055157;28;20176;-82
2022/09/13 04:42:57;;;;;;;9.23;3.50;;;16.20;99.90;;;;;;5040645;28;20210;-82
2022/09/13 04:45:23;;;;;;;7.10;3.73;;;16.20;99.90;;;;;;5058869;28;20156;-82
2022/09/13 04:47:52;;;;;;;5.50;3.63;;;16.20;99.90;;;;;;5040349;28;20207;-81
2022/09/13 04:50:19;;;;;;;7.90;3.43;;;16.10;99.90;;;;;;5039633;28;20215;-82
2022/09/13 04:52:45;;;;;;;5.20;3.60;;;16.10;99.90;;;;;;5039140;28;20204;-82
2022/09/13 04:55:11;;;;;;;6.57;3.73;;;16.20;99.90;;;;;;5039783;28;20600;-82
2022/09/13 04:57:37;;;;;;;8.53;3.87;;;16.20;99.90;;;;;;5039574;28;20207;-82
2022/09/13 05:00:04;;;;;;;4.63;3.57;;;16.20;99.90;;;;;;5039385;28;20180;-82
2022/09/13 05:02:29;;;;;;;3.80;3.00;;;16.20;99.90;;;;;;5039152;28;20175;-82
2022/09/13 05:04:55;;;;;;;5.10;3.60;;;16.20;99.90;;;;;;5044013;28;20178;-83
2022/09/13 05:07:21;;;;;;;5.33;3.43;;;16.20;99.90;;;;;;5044554;28;20183;-82
2022/09/13 05:09:46;;;;;;;4.43;3.10;;;16.20;99.90;;;;;;5062727;28;20185;-82
2022/09/13 05:12:12;;;;;;;4.90;3.40;;;16.20;99.90;;;;;;5044979;28;20549;-83
2022/09/13 05:14:38;;;;;;;4.30;2.90;;;16.30;99.90;;;;;;5063652;28;20199;-82
2022/09/13 05:17:03;;;;;;;4.20;3.80;;;16.20;99.90;;;;;;5063432;28;20196;-82
2022/09/13 05:19:29;;;;;;;4.90;3.40;;;16.20;99.90;;;;;;5063839;28;20634;-83
2022/09/13 05:21:54;;;;;;;5.07;3.10;;;16.20;99.90;;;;;;5045557;28;20167;-83
2022/09/13 05:24:20;;;;;;;4.37;3.13;;;16.20;99.90;;;;;;5046085;28;20196;-83
2022/09/13 05:26:46;;;;;;;4.03;3.63;;;16.10;99.90;;;;;;5045520;28;20180;-83
2022/09/13 05:29:11;;;;;;;6.33;3.63;;;16.10;99.90;;;;;;5044698;28;20172;-82
2022/09/13 05:31:40;;;;;;;4.07;3.67;;;16.10;99.90;;;;;;5045003;28;20180;-83
2022/09/13 05:34:11;;;;;;;4.83;3.33;;;16.10;99.90;;;;;;5045415;28;20199;-83
2022/09/13 05:36:37;;;;;;;6.37;3.90;;;16.10;99.90;;;;;;5063073;28;20199;-84
2022/09/13 05:39:04;;;;;;;6.13;4.13;;;16.10;99.90;;;;;;5063008;28;20164;-83
2022/09/13 05:41:30;;;;;;;5.13;3.87;;;16.10;99.90;;;;;;5045261;28;20266;-84
2022/09/13 05:43:56;;;;;;;7.43;4.07;;;16.10;99.90;;;;;;5044427;28;20231;-83
2022/09/13 05:46:21;;;;;;;5.80;3.87;;;16.20;99.90;;;;;;5062907;28;20186;-84
2022/09/13 05:48:48;;;;;;;7.70;4.40;;;16.20;99.90;;;;;;5044311;28;20239;-83
2022/09/13 05:51:15;;;;;;;7.10;4.30;;;16.20;99.90;;;;;;5043215;28;20186;-83
2022/09/13 05:53:43;;;;;;;6.27;4.23;;;16.20;99.90;;;;;;5042729;28;20693;-84
2022/09/13 05:56:15;;;;;;;8.43;4.33;;;16.20;99.90;;;;;;5061417;28;20231;-84
2022/09/13 05:58:42;;;;;;;5.77;4.23;;;16.20;99.90;;;;;;5043225;28;20168;-83
2022/09/13 06:01:10;;;;;;;7.83;4.03;;;16.30;99.90;;;;;;5043554;28;20182;-84
2022/09/13 06:03:36;;;;;;;7.53;4.20;;;16.30;99.90;;;;;;5043727;28;20191;-83
2022/09/13 06:06:03;;;;;;;4.43;3.90;;;16.30;99.90;;;;;;5061810;28;20172;-83
2022/09/13 06:08:30;;;;;;;5.27;3.77;;;16.40;99.90;;;;;;5061441;28;20176;-84
2022/09/13 06:10:56;;;;;;;6.73;3.73;;;16.40;99.90;;;;;;5043359;28;20645;-83
2022/09/13 06:13:22;;;;;;;5.17;3.80;;;16.40;99.90;;;;;;5044099;28;20194;-83
2022/09/13 06:15:48;;;;;;;5.07;3.40;;;16.40;99.90;;;;;;5060267;28;20168;-83
2022/09/13 06:18:13;;;;;;;5.70;3.37;;;16.50;99.90;;;;;;5042906;28;20218;-84
2022/09/13 06:20:39;;;;;;;4.63;3.50;;;16.50;99.90;;;;;;5060241;28;20163;-83
2022/09/13 06:23:04;;;;;;;4.87;3.83;;;16.50;99.90;;;;;;5042719;28;20191;-84
2022/09/13 06:25:30;;;;;;;7.20;3.50;;;16.50;99.90;;;;;;5042080;28;20168;-83
2022/09/13 06:27:55;;;;;;;4.90;4.00;;;16.60;99.90;;;;;;5059437;28;20182;-83
2022/09/13 06:30:21;;;;;;;4.73;3.77;;;16.60;99.90;;;;;;5041074;28;20182;-83
2022/09/13 06:32:46;;;;;;;8.10;3.70;;;16.60;99.90;;;;;;5040814;28;20196;-84
2022/09/13 06:35:12;;;;;;;6.53;4.50;;;16.70;99.90;;;;;;5042485;28;20182;-83
2022/09/13 06:37:38;;;;;;;8.17;4.90;;;16.80;99.90;;;;;;5041462;28;20211;-83
2022/09/13 06:40:05;;;;;;;6.03;4.27;;;16.70;99.90;;;;;;5059462;28;20183;-83
2022/09/13 06:42:33;;;;;;;7.43;4.70;;;16.80;99.90;;;;;;5041692;28;20637;-84
2022/09/13 06:44:59;;;;;;;7.27;4.03;;;16.80;99.90;;;;;;5070634;22;20223;-79
2022/09/13 06:47:25;;;;;;;5.50;4.27;;;17.20;99.90;;;;;;5039512;28;20176;-78
2022/09/13 06:49:50;;;;;;;5.17;4.07;;;16.90;99.90;;;;;;5038384;28;20181;-78
2022/09/13 06:52:16;;;;;;;8.40;4.70;;;17.00;99.90;;;;;;5039693;28;20180;-78
2022/09/13 06:54:42;;;;;;;7.87;4.33;;;17.70;99.90;;;;;;5038614;28;20207;-79
2022/09/13 06:57:08;;;;;;;7.10;3.63;;;17.20;99.90;;;;;;5032742;28;20196;-78
2022/09/13 06:59:33;;;;;;;7.67;4.20;;;17.50;99.90;;;;;;5031402;28;20177;-78
2022/09/13 07:01:59;;;;;;;7.00;4.20;;;16.30;99.90;;;;;;5015102;28;20180;-79
2022/09/13 07:04:25;;;;;;;6.60;3.77;;;17.20;99.90;;;;;;5030384;28;20231;-78
2022/09/13 07:06:50;;;;;;;6.93;4.23;;;17.30;99.90;;;;;;5037434;28;20208;-78
2022/09/13 07:09:20;;;;;;;6.47;4.20;;;17.30;99.90;;;;;;5035953;28;20303;-78
2022/09/13 07:11:46;;;;;;;4.60;3.20;;;17.40;99.90;;;;;;5039591;28;20195;-78
2022/09/13 07:14:18;;;;;;;5.33;3.27;;;17.40;99.90;;;;;;5028512;28;20177;-77
2022/09/13 07:16:45;;;;;;;6.50;3.63;;;17.50;99.90;;;;;;5036089;28;20278;-78
2022/09/13 07:19:30;;;;;;;7.37;3.50;;;17.90;99.90;;;;;;5032863;28;20187;-78
2022/09/13 07:21:56;;;;;;;4.93;3.90;;;17.60;99.90;;;;;;5035498;28;20183;-78
2022/09/13 07:24:23;;;;;;;8.57;3.70;;;17.60;99.90;;;;;;5029788;28;20247;-78
2022/09/13 07:26:49;;;;;;;4.90;3.50;;;17.70;99.90;;;;;;5023107;28;20181;-79
2022/09/13 07:29:21;;;;;;;4.60;4.20;;;17.70;99.90;;;;;;5024433;28;20222;-79
2022/09/13 07:31:50;;;;;;;6.47;4.27;;;17.80;99.90;;;;;;5033585;28;20195;-79
2022/09/13 07:34:21;;;;;;;5.10;4.00;;;17.70;99.90;;;;;;5029474;28;20184;-78
2022/09/13 07:36:47;;;;;;;5.57;3.40;;;17.90;99.90;;;;;;5029509;28;20214;-78
2022/09/13 07:39:14;;;;;;;6.10;3.87;;;18.00;99.90;;;;;;5028367;28;20173;-77
2022/09/13 07:41:40;;;;;;;7.47;3.67;;;18.10;99.90;;;;;;5020750;28;20201;-79
2022/09/13 07:44:07;;;;;;;5.47;3.73;;;18.00;99.90;;;;;;5029413;28;20180;-78
2022/09/13 07:46:40;;;;;;;5.27;4.17;;;18.20;99.90;;;;;;5023472;28;20705;-78
2022/09/13 07:49:06;;;;;;;7.40;3.67;;;18.30;99.90;;;;;;5025172;28;20169;-77
2022/09/13 07:51:33;;;;;;;4.73;3.53;;;18.30;99.90;;;;;;5023706;28;20209;-77
2022/09/13 07:54:02;;;;;;;7.13;3.43;;;18.40;99.90;;;;;;5035478;28;20180;-77
2022/09/13 07:56:33;;;;;;;6.27;3.80;;;18.40;99.90;;;;;;5024326;28;20212;-77
2022/09/13 07:59:01;;;;;;;9.27;3.80;;;18.50;99.90;;;;;;5025102;28;20562;-77
2022/09/13 08:01:29;;;;;;;5.80;3.50;;;18.50;99.90;;;;;;5025206;28;20665;-77
2022/09/13 08:04:06;;;;;;;4.93;3.60;;;18.60;99.90;;;;;;5023646;28;20184;-77
2022/09/13 08:06:34;;;;;;;5.17;3.00;;;18.70;99.90;;;;;;5022279;28;20209;-77
2022/09/13 08:09:00;;;;;;;5.70;3.40;;;18.70;99.90;;;;;;5022509;28;20176;-77
2022/09/13 08:11:37;;;;;;;4.93;3.53;;;18.80;99.90;;;;;;5023737;28;20670;-78
2022/09/13 08:14:04;;;;;;;6.90;3.10;;;18.90;99.90;;;;;;5023443;28;20233;-77
2022/09/13 08:16:30;;;;;;;6.30;2.90;;;19.00;99.90;;;;;;5026917;28;20207;-77
2022/09/13 08:18:59;;;;;;;4.77;2.77;;;19.10;99.90;;;;;;5025981;28;20176;-77
2022/09/13 08:21:30;;;;;;;4.50;3.17;;;19.20;99.90;;;;;;5022457;28;20227;-77
2022/09/13 08:23:59;;;;;;;5.40;3.43;;;19.30;99.90;;;;;;5023147;28;20302;-77
2022/09/13 08:26:25;;;;;;;4.20;3.07;;;19.40;99.90;;;;;;5012782;28;20287;-77
2022/09/13 08:28:58;;;;;;;4.50;3.27;;;19.50;99.90;;;;;;5014413;28;20191;-77
2022/09/13 08:31:25;;;;;;;6.17;3.40;;;19.60;99.90;;;;;;5024909;28;20176;-77
2022/09/13 08:33:51;;;;;;;5.57;3.47;;;19.70;99.90;;;;;;5022512;28;20302;-77
2022/09/13 08:36:17;;;;;;;4.83;3.23;;;19.70;99.90;;;;;;5023008;28;20223;-78
2022/09/13 08:38:47;;;;;;;6.33;4.27;;;19.70;99.90;;;;;;5026763;28;20165;-78
2022/09/13 08:41:27;;;;;;;5.27;3.87;;;19.80;99.90;;;;;;5024084;28;20329;-77
2022/09/13 08:44:08;;;;;;;7.50;3.60;;;19.80;99.90;;;;;;5029449;28;20639;-77
2022/09/13 08:46:54;;;;;;;10.17;3.53;;;19.90;99.90;;;;;;5028194;28;20204;-77
2022/09/13 08:49:21;;;;;;;9.80;4.27;;;20.00;99.90;;;;;;5029505;28;20176;-78
2022/09/13 08:51:48;;;;;;;7.00;4.10;;;20.10;99.90;;;;;;5024718;28;20258;-77
2022/09/13 08:54:16;;;;;;;7.43;4.03;;;20.10;99.90;;;;;;5026730;28;20173;-77
2022/09/13 08:57:16;;;;;;;5.50;3.80;;;20.20;99.90;;;;;;5028560;28;20227;-78
2022/09/13 08:59:51;;;;;;;6.60;4.17;;;20.20;99.90;;;;;;5019725;28;20619;-77
2022/09/13 09:02:36;;;;;;;6.13;4.20;;;20.30;99.90;;;;;;5045147;28;20169;-77
2022/09/13 09:05:09;;;;;;;6.53;3.90;;;20.30;99.90;;;;;;5047087;28;20275;-77
2022/09/13 09:07:42;;;;;;;5.73;3.93;;;20.40;99.90;;;;;;5020906;28;20176;-77
2022/09/13 09:10:13;;;;;;;7.33;3.97;;;20.50;99.90;;;;;;5024970;28;20192;-77
2022/09/13 09:12:48;;;;;;;7.97;4.23;;;20.50;99.90;;;;;;5015565;28;20671;-77
2022/09/13 09:15:28;;;;;;;6.77;4.50;;;20.50;99.90;;;;;;5015751;28;20204;-78
2022/09/13 09:18:12;;;;;;;11.20;4.97;;;20.60;99.90;;;;;;5016101;28;20243;-78
2022/09/13 09:20:45;;;;;;;8.30;4.60;;;20.60;99.90;;;;;;5016911;28;20165;-78
2022/09/13 09:23:16;;;;;;;8.43;5.30;;;20.70;99.90;;;;;;5016752;28;20561;-78
2022/09/13 09:25:41;;;;;;;10.23;5.90;;;20.70;99.90;;;;;;5022262;28;20200;-77
2022/09/13 09:28:16;;;;;;;14.67;7.13;;;20.90;99.90;;;;;;5027400;28;20234;-77
2022/09/13 09:30:53;;;;;;;12.40;5.77;;;20.90;99.90;;;;;;5026987;28;20207;-77
2022/09/13 09:33:37;;;;;;;12.33;6.43;;;20.90;99.90;;;;;;5023360;28;20176;-78
2022/09/13 09:36:21;;;;;;;11.70;5.60;;;21.00;99.90;;;;;;5026935;28;20212;-77
2022/09/13 09:38:47;;;;;;;6.20;4.27;;;21.00;99.90;;;;;;5028081;28;20322;-77
2022/09/13 09:41:26;;;;;;;9.33;4.97;;;21.10;99.90;;;;;;5026131;28;20654;-77
2022/09/13 09:44:20;;;;;;;12.47;5.53;;;21.20;99.90;;;;;;5026255;28;20164;-77
2022/09/13 09:46:58;;;;;;;20.43;6.50;;;21.30;99.90;;;;;;5025133;28;20185;-77
2022/09/13 09:52:31;;;;;;;16.93;7.50;;;21.30;99.90;;;;;;5028128;28;20167;-77
2022/09/13 09:55:09;;;;;;;21.67;7.93;;;21.40;99.90;;;;;;5033580;28;20200;-77
2022/09/13 09:57:59;;;;;;;18.10;7.40;;;21.40;99.90;;;;;;5034621;28;20192;-78
2022/09/13 10:00:29;;;;;;;15.37;7.63;;;21.60;99.90;;;;;;5034837;28;20161;-78
2022/09/13 10:02:58;;;;;;;15.63;6.70;;;21.70;99.90;;;;;;5035808;28;20221;-80
2022/09/13 10:05:26;;;;;;;13.80;6.10;;;21.70;99.90;;;;;;5036931;28;20192;-79
2022/09/13 10:07:57;;;;;;;12.30;5.30;;;21.70;99.90;;;;;;5037320;28;20199;-80
2022/09/13 10:10:35;;;;;;;10.57;5.70;;;21.80;99.90;;;;;;5037655;28;20156;-80
2022/09/13 10:13:03;;;;;;;10.10;5.40;;;21.90;99.90;;;;;;5038801;28;20172;-81
2022/09/13 10:15:31;;;;;;;18.63;7.00;;;22.00;99.90;;;;;;5038379;28;20219;-81
2022/09/13 10:18:02;;;;;;;12.73;6.53;;;22.00;99.90;;;;;;5037832;28;20234;-81
2022/09/13 10:20:28;;;;;;;13.27;5.70;;;22.10;99.90;;;;;;5037804;28;20160;-81
2022/09/13 10:23:16;;;;;;;15.43;7.20;;;22.10;99.90;;;;;;5036680;28;20180;-81
2022/09/13 10:25:44;;;;;;;15.20;6.43;;;22.10;99.90;;;;;;5037278;28;20188;-81
2022/09/13 10:28:14;;;;;;;12.20;6.27;;;22.20;99.90;;;;;;5036295;28;20697;-81
2022/09/13 10:30:48;;;;;;;16.07;7.27;;;22.20;99.90;;;;;;5035985;28;20203;-81
2022/09/13 10:33:26;;;;;;;13.63;5.90;;;22.30;99.90;;;;;;5037941;28;20259;-81
2022/09/13 10:35:55;;;;;;;15.60;7.40;;;22.30;99.90;;;;;;5037350;28;20192;-81
2022/09/13 10:38:31;;;;;;;15.00;6.90;;;22.40;99.90;;;;;;5037723;28;20200;-81
2022/09/13 10:40:58;;;;;;;12.40;6.57;;;22.50;99.90;;;;;;5035924;28;20176;-81
2022/09/13 10:43:27;;;;;;;13.67;6.60;;;22.60;99.90;;;;;;5036541;28;20573;-81
2022/09/13 10:45:53;;;;;;;15.43;7.30;;;22.60;99.90;;;;;;5037439;28;20204;-80
2022/09/13 10:48:19;;;;;;;15.23;7.23;;;22.60;99.90;;;;;;5036133;28;20184;-81
2022/09/13 10:51:07;;;;;;;10.10;5.90;;;22.80;99.90;;;;;;5036984;28;20195;-81
2022/09/13 10:53:38;;;;;;;15.17;6.07;;;22.90;99.90;;;;;;5036693;28;20255;-80
2022/09/13 10:56:17;;;;;;;7.10;4.30;;;23.00;99.90;;;;;;5038691;28;20314;-81
2022/09/13 10:58:43;;;;;;;10.57;3.67;;;23.20;99.90;;;;;;5031239;28;20187;-81
2022/09/13 11:01:36;;;;;;;4.40;2.87;;;23.20;99.90;;;;;;5025889;28;20180;-81
2022/09/13 11:04:27;;;;;;;4.27;2.90;;;23.20;99.90;;;;;;5056843;28;20180;-80
2022/09/13 11:07:18;;;;;;;3.10;2.30;;;23.20;99.90;;;;;;5022731;28;20173;-81
2022/09/13 11:10:05;;;;;;;4.93;2.90;;;23.30;99.90;;;;;;5029168;28;20181;-81
2022/09/13 11:12:40;;;;;;;6.60;3.23;;;23.40;99.90;;;;;;5032586;28;20176;-81
2022/09/13 11:15:32;;;;;;;5.80;2.03;;;23.50;99.90;;;;;;5023219;28;20192;-81
2022/09/13 11:18:33;;;;;;;2.57;2.03;;;23.70;99.90;;;;;;5025059;28;20192;-82
2022/09/13 11:21:23;;;;;;;5.67;3.73;;;23.70;99.90;;;;;;4990618;28;20208;-81
2022/09/13 11:24:13;;;;;;;5.97;3.17;;;23.80;99.90;;;;;;5030234;28;20577;-81
2022/09/13 11:26:53;;;;;;;4.80;1.70;;;23.80;99.90;;;;;;5029748;28;20204;-81
2022/09/13 11:29:33;;;;;;;3.27;1.60;;;23.90;99.90;;;;;;5035580;28;20184;-80
2022/09/13 11:32:07;;;;;;;2.33;1.80;;;23.80;99.90;;;;;;5046654;28;20180;-81
2022/09/13 11:35:10;;;;;;;4.30;1.97;;;23.80;99.90;;;;;;5031782;28;20207;-81
2022/09/13 11:38:02;;;;;;;4.67;2.43;;;23.80;99.90;;;;;;5036225;28;20720;-81
2022/09/13 11:40:39;;;;;;;3.17;2.07;;;24.00;99.90;;;;;;5033570;28;20518;-81
2022/09/13 11:43:28;;;;;;;2.93;1.50;;;23.80;99.90;;;;;;5030013;28;20263;-81
2022/09/13 11:46:08;;;;;;;4.87;2.23;;;23.90;99.90;;;;;;5028276;28;20235;-81
2022/09/13 11:48:36;;;;;;;2.83;2.30;;;23.90;99.90;;;;;;5038689;28;20172;-81
2022/09/13 11:51:24;;;;;;;2.60;2.23;;;24.00;99.90;;;;;;5028053;28;20697;-81
2022/09/13 11:54:00;;;;;;;4.83;2.57;;;24.00;99.90;;;;;;5032790;28;20188;-81
2022/09/13 11:56:37;;;;;;;10.60;3.60;;;24.10;99.90;;;;;;5031247;28;20675;-81
2022/09/13 11:59:05;;;;;;;8.93;3.30;;;24.10;99.90;;;;;;5029246;28;20318;-81
2022/09/13 12:01:41;;;;;;;6.20;4.20;;;24.20;99.90;;;;;;5034003;28;20195;-81
2022/09/13 12:04:16;;;;;;;7.47;3.83;;;24.50;99.90;;;;;;5027072;28;20659;-80
2022/09/13 12:06:45;;;;;;;8.53;3.93;;;24.30;99.90;;;;;;5034249;28;20215;-81
2022/09/13 12:09:20;;;;;;;8.23;3.70;;;24.30;99.90;;;;;;5030049;28;20211;-81
2022/09/13 12:12:02;;;;;;;7.73;3.60;;;24.20;99.90;;;;;;5036438;28;20184;-81
2022/09/13 12:14:36;;;;;;;5.33;3.03;;;24.30;99.90;;;;;;5031403;28;20173;-81
2022/09/13 12:17:09;;;;;;;5.83;2.87;;;24.30;99.90;;;;;;5026518;28;20193;-82
2022/09/13 12:19:43;;;;;;;7.67;3.00;;;24.40;99.90;;;;;;5023145;28;20541;-81
2022/09/13 12:22:11;;;;;;;6.00;3.53;;;24.40;99.90;;;;;;5021485;28;20169;-79
2022/09/13 12:24:43;;;;;;;4.60;3.10;;;24.40;99.90;;;;;;5018243;28;20191;-82
2022/09/13 12:27:20;;;;;;;4.80;2.80;;;24.40;99.90;;;;;;5015409;28;20173;-82
2022/09/13 12:29:56;;;;;;;4.43;2.53;;;24.60;99.90;;;;;;5015774;28;20224;-81
2022/09/13 12:32:22;;;;;;;7.73;2.90;;;24.60;99.90;;;;;;5013965;28;20257;-81
2022/09/13 12:35:04;;;;;;;3.87;2.73;;;24.60;99.90;;;;;;5015454;28;20658;-81
2022/09/13 12:37:53;;;;;;;6.27;2.97;;;24.80;99.90;;;;;;5016465;28;20205;-80
2022/09/13 12:40:41;;;;;;;6.27;3.30;;;24.90;99.90;;;;;;5017090;28;20158;-80
2022/09/13 12:43:42;;;;;;;7.43;2.70;;;25.00;99.90;;;;;;5015286;28;20193;-79
2022/09/13 12:46:19;;;;;;;5.25;2.55;;;25.10;99.90;;;;;;5014885;28;20223;-79
2022/09/13 12:49:22;;;;;;;4.93;2.87;;;25.20;99.90;;;;;;5014500;28;20172;-82
2022/09/13 12:52:18;;;;;;;3.23;2.20;;;25.20;98.80;;;;;;5067409;22;20248;-85
2022/09/13 12:54:54;;;;;;;5.53;2.80;;;25.20;99.90;;;;;;5060409;28;20175;-86
2022/09/13 12:57:28;;;;;;;3.97;2.58;;;25.10;99.90;;;;;;5061666;28;20210;-86
2022/09/13 13:00:03;;;;;;;3.30;2.35;;;25.20;99.90;;;;;;5059609;28;20299;-87
2022/09/13 13:02:32;;;;;;;6.33;2.80;;;25.30;99.90;;;;;;5076695;28;20198;-85
2022/09/13 13:05:03;;;;;;;4.03;2.10;;;25.30;99.90;;;;;;5075758;28;20227;-85
2022/09/13 13:07:32;;;;;;;4.83;2.30;;;25.20;99.90;;;;;;5074125;28;20210;-84
2022/09/13 13:09:59;;;;;;;5.10;2.88;;;25.20;90.50;;;;;;5052604;28;20175;-84
2022/09/13 13:12:34;;;;;;;8.02;2.95;;;25.30;92.60;;;;;;5071483;28;20215;-85
2022/09/13 13:15:03;;;;;;;6.07;2.80;;;25.30;98.10;;;;;;5071436;28;20182;-85
2022/09/13 13:17:35;;;;;;;3.47;1.77;;;25.20;95.60;;;;;;5066399;28;20207;-85